Time;durP1;ratioP1;P1;durP2;ratioP2;P2;SDS_P1;SDS_P2;PMS_P1;PMS_P2;Temp;Humidity;BMP_temperature;BMP_pressure;BME280_temperature;BME280_humidity;BME280_pressure;Samples;Min_cycle;Max_cycle;Signal;HPM_P1;HPM_P2
2022/07/03 00:00:42;;;;;;;3.13;2.55;;;;;;;;;;5067582;28;20028;-76
2022/07/03 00:03:09;;;;;;;3.92;3.53;;;;;;;;;;5063207;28;20017;-75
2022/07/03 00:05:35;;;;;;;4.05;2.22;;;;;;;;;;5057586;28;20025;-76
2022/07/03 00:08:03;;;;;;;2.95;2.50;;;;;;;;;;5055547;28;20545;-76
2022/07/03 00:10:29;;;;;;;3.70;2.10;;;;;;;;;;5052133;28;20052;-76
2022/07/03 00:12:55;;;;;;;4.22;2.25;;;;;;;;;;5058049;28;20066;-75
2022/07/03 00:15:21;;;;;;;4.63;2.30;;;;;;;;;;5060054;28;20090;-75
2022/07/03 00:17:48;;;;;;;4.70;2.20;;;;;;;;;;5062819;28;20379;-76
2022/07/03 00:20:14;;;;;;;3.85;2.25;;;;;;;;;;5057624;28;20502;-76
2022/07/03 00:22:43;;;;;;;5.38;3.13;;;;;;;;;;5059506;28;20032;-74
2022/07/03 00:25:10;;;;;;;3.60;2.20;;;;;;;;;;5061297;28;20454;-74
2022/07/03 00:27:38;;;;;;;2.83;2.30;;;;;;;;;;5069571;28;20032;-76
2022/07/03 00:30:07;;;;;;;2.63;2.17;;;;;;;;;;5058114;28;20510;-75
2022/07/03 00:32:34;;;;;;;4.18;2.20;;;;;;;;;;5057819;28;20052;-76
2022/07/03 00:35:02;;;;;;;2.88;1.90;;;;;;;;;;5062954;28;20653;-76
2022/07/03 00:37:28;;;;;;;4.47;2.40;;;;;;;;;;5055858;28;20052;-77
2022/07/03 00:39:54;;;;;;;3.58;2.30;;;;;;;;;;5060530;28;20027;-77
2022/07/03 00:42:20;;;;;;;4.32;2.20;;;;;;;;;;5058676;28;20027;-76
2022/07/03 00:44:51;;;;;;;4.18;2.17;;;;;;;;;;5055385;28;20075;-76
2022/07/03 00:47:18;;;;;;;3.15;2.00;;;;;;;;;;5061827;28;20043;-75
2022/07/03 00:49:46;;;;;;;5.85;2.45;;;;;;;;;;5059013;28;20123;-75
2022/07/03 00:52:13;;;;;;;4.53;2.40;;;;;;;;;;5062584;28;20028;-76
2022/07/03 00:54:42;;;;;;;4.20;2.20;;;;;;;;;;5055366;28;20043;-75
2022/07/03 00:57:12;;;;;;;3.92;2.88;;;;;;;;;;5058867;28;20017;-75
2022/07/03 00:59:39;;;;;;;3.15;2.13;;;;;;;;;;5054752;28;20029;-75
2022/07/03 01:02:05;;;;;;;4.72;3.38;;;;;;;;;;5070549;28;20037;-76
2022/07/03 01:04:31;;;;;;;15.75;3.58;;;;;;;;;;5060088;28;20107;-76
2022/07/03 01:07:20;;;;;;;3.75;2.30;;;;;;;;;;5057789;28;20115;-76
2022/07/03 01:10:00;;;;;;;5.55;2.55;;;;;;;;;;5053885;28;20098;-76
2022/07/03 01:12:45;;;;;;;2.90;2.30;;;;;;;;;;5056889;28;20087;-76
2022/07/03 01:15:12;;;;;;;3.05;2.22;;;;;;;;;;5056648;28;20025;-76
2022/07/03 01:17:45;;;;;;;5.03;3.10;;;;;;;;;;5067565;28;20024;-76
2022/07/03 01:20:12;;;;;;;6.55;2.63;;;;;;;;;;5058109;28;20399;-76
2022/07/03 01:22:45;;;;;;;3.20;2.28;;;;;;;;;;5057582;28;20016;-76
2022/07/03 01:25:11;;;;;;;4.47;2.35;;;;;;;;;;5055270;28;20548;-76
2022/07/03 01:27:52;;;;;;;6.07;2.70;;;;;;;;;;5055247;28;20486;-75
2022/07/03 01:30:19;;;;;;;3.08;2.20;;;;;;;;;;5054379;28;20360;-76
2022/07/03 01:32:46;;;;;;;6.78;2.58;;;;;;;;;;5058199;28;20048;-75
2022/07/03 01:35:13;;;;;;;6.43;4.00;;;;;;;;;;5059623;28;20021;-77
2022/07/03 01:37:40;;;;;;;5.85;2.55;;;;;;;;;;5056747;28;20029;-75
2022/07/03 01:40:06;;;;;;;3.22;2.30;;;;;;;;;;5057173;28;20020;-76
2022/07/03 01:42:33;;;;;;;7.72;3.13;;;;;;;;;;5054540;28;20020;-75
2022/07/03 01:45:00;;;;;;;4.97;2.50;;;;;;;;;;5054779;28;20077;-76
2022/07/03 01:47:27;;;;;;;4.63;2.70;;;;;;;;;;5054915;28;20029;-76
2022/07/03 01:49:54;;;;;;;3.08;2.40;;;;;;;;;;5064525;28;20024;-76
2022/07/03 01:52:21;;;;;;;6.38;2.45;;;;;;;;;;5056144;28;20028;-75
2022/07/03 01:54:48;;;;;;;6.10;2.33;;;;;;;;;;5067679;28;20037;-75
2022/07/03 01:57:14;;;;;;;5.20;2.38;;;;;;;;;;5055029;28;20033;-77
2022/07/03 01:59:41;;;;;;;4.78;2.60;;;;;;;;;;5051384;28;20024;-76
2022/07/03 02:02:15;;;;;;;3.88;2.55;;;;;;;;;;5053258;28;20467;-76
2022/07/03 02:04:45;;;;;;;4.43;2.42;;;;;;;;;;5062839;28;20029;-75
2022/07/03 02:07:17;;;;;;;4.50;2.60;;;;;;;;;;5058480;28;20132;-75
2022/07/03 02:10:10;;;;;;;4.97;2.50;;;;;;;;;;5060000;28;20326;-76
2022/07/03 02:12:40;;;;;;;5.13;2.83;;;;;;;;;;5054661;28;20044;-75
2022/07/03 02:15:07;;;;;;;5.25;2.88;;;;;;;;;;5058387;28;20027;-77
2022/07/03 02:17:38;;;;;;;5.95;2.92;;;;;;;;;;5059826;28;20024;-75
2022/07/03 02:20:07;;;;;;;5.25;2.42;;;;;;;;;;5060745;28;20130;-76
2022/07/03 02:22:38;;;;;;;5.97;2.70;;;;;;;;;;5056975;28;20025;-76
2022/07/03 02:25:06;;;;;;;8.55;3.03;;;;;;;;;;5059945;28;20495;-75
2022/07/03 02:27:35;;;;;;;8.57;2.90;;;;;;;;;;5052018;28;20043;-76
2022/07/03 02:30:09;;;;;;;5.05;2.60;;;;;;;;;;5064886;28;20028;-75
2022/07/03 02:32:44;;;;;;;5.80;2.65;;;;;;;;;;5062720;28;20048;-77
2022/07/03 02:35:12;;;;;;;7.68;2.65;;;;;;;;;;5060226;28;20028;-74
2022/07/03 02:37:45;;;;;;;4.55;2.70;;;;;;;;;;5058522;28;20031;-76
2022/07/03 02:40:23;;;;;;;3.78;3.15;;;;;;;;;;5065499;28;20066;-76
2022/07/03 02:43:02;;;;;;;3.92;2.20;;;;;;;;;;5055581;28;20036;-75
2022/07/03 02:45:31;;;;;;;9.43;2.42;;;;;;;;;;5057567;28;20031;-74
2022/07/03 02:48:26;;;;;;;5.88;2.95;;;;;;;;;;5056235;28;20035;-75
2022/07/03 02:50:55;;;;;;;3.40;2.78;;;;;;;;;;5057489;28;20091;-76
2022/07/03 02:53:51;;;;;;;7.35;2.80;;;;;;;;;;5052190;28;20051;-76
2022/07/03 02:56:17;;;;;;;;;;;;;;;;;;5049175;28;20079;-75
2022/07/03 02:59:01;;;;;;;4.38;2.40;;;;;;;;;;5058541;28;20402;-74
2022/07/03 03:01:30;;;;;;;4.53;2.47;;;;;;;;;;5062928;28;20020;-76
2022/07/03 03:04:15;;;;;;;6.03;2.65;;;;;;;;;;5064396;28;20493;-74
2022/07/03 03:06:43;;;;;;;4.80;2.77;;;;;;;;;;5060370;28;20414;-75
2022/07/03 03:09:11;;;;;;;4.78;2.78;;;;;;;;;;5058783;28;20291;-75
2022/07/03 03:11:45;;;;;;;5.60;3.83;;;;;;;;;;5058343;28;20394;-75
2022/07/03 03:14:14;;;;;;;5.07;3.60;;;;;;;;;;5062902;28;20070;-76
2022/07/03 03:16:53;;;;;;;5.53;3.15;;;;;;;;;;5064358;28;20028;-76
2022/07/03 03:19:23;;;;;;;6.45;2.90;;;;;;;;;;5052990;28;20026;-75
2022/07/03 03:22:00;;;;;;;5.80;2.88;;;;;;;;;;5059824;28;20046;-75
2022/07/03 03:24:28;;;;;;;6.38;2.67;;;;;;;;;;5059146;28;20041;-75
2022/07/03 03:26:54;;;;;;;5.18;3.17;;;;;;;;;;5058825;28;20036;-76
2022/07/03 03:29:20;;;;;;;4.50;2.90;;;;;;;;;;5056770;28;20125;-76
2022/07/03 03:31:46;;;;;;;5.07;2.47;;;;;;;;;;5056905;28;20052;-76
2022/07/03 03:34:13;;;;;;;4.10;2.58;;;;;;;;;;5060725;28;20029;-75
2022/07/03 03:36:40;;;;;;;5.25;2.53;;;;;;;;;;5061654;28;20016;-76
2022/07/03 03:39:06;;;;;;;6.40;2.58;;;;;;;;;;5055878;28;20147;-74
2022/07/03 03:41:33;;;;;;;5.70;2.60;;;;;;;;;;5063875;28;20129;-76
2022/07/03 03:43:59;;;;;;;5.03;2.40;;;;;;;;;;5059308;28;20494;-76
2022/07/03 03:46:25;;;;;;;4.22;2.65;;;;;;;;;;5068375;28;20028;-75
2022/07/03 03:48:51;;;;;;;5.25;2.75;;;;;;;;;;5057200;28;20100;-74
2022/07/03 03:51:17;;;;;;;4.65;2.55;;;;;;;;;;5059563;28;20104;-75
2022/07/03 03:53:44;;;;;;;4.82;2.70;;;;;;;;;;5061244;28;20216;-75
2022/07/03 03:56:11;;;;;;;2.85;2.28;;;;;;;;;;5055959;28;20032;-76
2022/07/03 03:58:38;;;;;;;7.20;3.08;;;;;;;;;;5057882;28;20444;-75
2022/07/03 04:01:05;;;;;;;3.05;2.40;;;;;;;;;;5056688;28;20033;-75
2022/07/03 04:03:32;;;;;;;5.20;3.03;;;;;;;;;;5065946;28;20020;-75
2022/07/03 04:05:58;;;;;;;7.60;3.05;;;;;;;;;;5057940;28;20467;-74
2022/07/03 04:08:25;;;;;;;4.78;2.55;;;;;;;;;;5054422;28;20079;-75
2022/07/03 04:10:51;;;;;;;4.82;3.20;;;;;;;;;;5062925;28;20450;-75
2022/07/03 04:13:19;;;;;;;6.35;2.55;;;;;;;;;;5058210;28;20036;-75
2022/07/03 04:15:45;;;;;;;5.53;3.08;;;;;;;;;;5055569;28;20056;-75
2022/07/03 04:18:11;;;;;;;4.05;3.28;;;;;;;;;;5054057;28;20039;-76
2022/07/03 04:20:37;;;;;;;5.28;2.60;;;;;;;;;;5057667;28;20023;-75
2022/07/03 04:23:04;;;;;;;4.70;2.80;;;;;;;;;;5060359;28;20272;-76
2022/07/03 04:25:30;;;;;;;6.40;3.15;;;;;;;;;;5048235;28;20021;-76
2022/07/03 04:27:56;;;;;;;7.47;2.80;;;;;;;;;;5059818;28;20024;-75
2022/07/03 04:30:22;;;;;;;6.10;3.10;;;;;;;;;;5058657;28;20095;-76
2022/07/03 04:32:49;;;;;;;3.90;2.47;;;;;;;;;;5054352;28;20056;-76
2022/07/03 04:35:17;;;;;;;4.68;3.17;;;;;;;;;;5058148;28;20045;-76
2022/07/03 04:37:43;;;;;;;8.73;3.10;;;;;;;;;;5058607;28;20031;-77
2022/07/03 04:40:09;;;;;;;6.72;2.85;;;;;;;;;;5057710;28;20062;-76
2022/07/03 04:42:36;;;;;;;3.72;2.80;;;;;;;;;;5057932;28;20012;-76
2022/07/03 04:45:02;;;;;;;3.58;2.70;;;;;;;;;;5062166;28;20025;-75
2022/07/03 04:47:28;;;;;;;11.35;3.65;;;;;;;;;;5057924;28;20031;-76
2022/07/03 04:49:54;;;;;;;4.07;3.10;;;;;;;;;;5059082;28;20086;-76
2022/07/03 04:52:24;;;;;;;7.95;2.85;;;;;;;;;;5056161;28;20119;-75
2022/07/03 04:54:50;;;;;;;4.18;2.60;;;;;;;;;;5053887;28;20052;-75
2022/07/03 04:57:16;;;;;;;11.27;3.80;;;;;;;;;;5057271;28;20059;-75
2022/07/03 04:59:42;;;;;;;4.20;2.85;;;;;;;;;;5052029;28;20027;-75
2022/07/03 05:02:08;;;;;;;7.72;4.00;;;;;;;;;;5052154;28;20016;-75
2022/07/03 05:04:34;;;;;;;9.98;3.08;;;;;;;;;;5063510;28;20490;-74
2022/07/03 05:07:00;;;;;;;7.35;2.75;;;;;;;;;;5068307;28;20116;-75
2022/07/03 05:09:27;;;;;;;5.07;2.60;;;;;;;;;;5065680;28;20412;-76
2022/07/03 05:11:53;;;;;;;8.13;3.00;;;;;;;;;;5052557;28;20033;-75
2022/07/03 05:14:19;;;;;;;7.30;2.42;;;;;;;;;;5059293;28;20028;-75
2022/07/03 05:16:45;;;;;;;5.20;2.53;;;;;;;;;;5059920;28;20540;-75
2022/07/03 05:19:11;;;;;;;6.90;3.67;;;;;;;;;;5065511;28;20017;-75
2022/07/03 05:21:37;;;;;;;6.82;2.75;;;;;;;;;;5054319;28;20048;-76
2022/07/03 05:24:03;;;;;;;5.97;2.50;;;;;;;;;;5053845;28;20056;-77
2022/07/03 05:26:29;;;;;;;5.47;2.42;;;;;;;;;;5052764;28;20041;-75
2022/07/03 05:28:56;;;;;;;4.03;2.55;;;;;;;;;;5063516;28;20070;-75
2022/07/03 05:31:22;;;;;;;4.97;2.30;;;;;;;;;;5054012;28;20025;-76
2022/07/03 05:33:48;;;;;;;5.90;2.83;;;;;;;;;;5053137;28;20082;-76
2022/07/03 05:36:14;;;;;;;3.63;2.33;;;;;;;;;;5056101;28;20048;-75
2022/07/03 05:41:24;;;;;;;6.00;3.00;;;;;;;;;;5054374;28;20509;-75
2022/07/03 05:43:51;;;;;;;3.38;2.47;;;;;;;;;;5059434;28;20074;-75
2022/07/03 05:46:17;;;;;;;5.10;2.40;;;;;;;;;;5053305;28;20032;-76
2022/07/03 05:48:43;;;;;;;4.35;2.45;;;;;;;;;;5057797;28;20024;-75
2022/07/03 05:51:09;;;;;;;6.45;3.13;;;;;;;;;;5058979;28;20054;-76
2022/07/03 05:53:35;;;;;;;7.07;4.07;;;;;;;;;;5057288;28;20036;-74
2022/07/03 05:56:01;;;;;;;4.47;2.35;;;;;;;;;;5064004;28;20107;-75
2022/07/03 05:58:27;;;;;;;7.07;3.33;;;;;;;;;;5066996;28;20025;-76
2022/07/03 06:00:53;;;;;;;3.83;2.50;;;;;;;;;;5058544;28;20074;-75
2022/07/03 06:03:19;;;;;;;3.65;2.30;;;;;;;;;;5055250;28;20474;-75
2022/07/03 06:05:45;;;;;;;4.03;2.38;;;;;;;;;;5053548;28;20029;-76
2022/07/03 06:08:12;;;;;;;4.85;2.53;;;;;;;;;;5060601;28;20521;-76
2022/07/03 06:10:38;;;;;;;7.38;2.80;;;;;;;;;;5056659;28;20029;-75
2022/07/03 06:13:04;;;;;;;4.47;2.88;;;;;;;;;;5062005;28;20027;-77
2022/07/03 06:15:30;;;;;;;2.70;2.03;;;;;;;;;;5057125;28;20131;-76
2022/07/03 06:17:56;;;;;;;6.13;2.45;;;;;;;;;;5064925;28;20020;-75
2022/07/03 06:20:22;;;;;;;5.00;2.80;;;;;;;;;;5052946;28;20139;-76
2022/07/03 06:22:48;;;;;;;4.38;2.10;;;;;;;;;;5067168;28;20020;-76
2022/07/03 06:25:14;;;;;;;3.50;2.22;;;;;;;;;;5057499;28;20037;-76
2022/07/03 06:27:42;;;;;;;3.60;2.35;;;;;;;;;;5059373;28;20429;-76
2022/07/03 06:30:08;;;;;;;4.13;2.50;;;;;;;;;;5056394;28;20021;-76
2022/07/03 06:32:34;;;;;;;7.15;2.10;;;;;;;;;;5058206;28;20080;-77
2022/07/03 06:35:01;;;;;;;4.65;1.83;;;;;;;;;;5056357;28;20064;-76
2022/07/03 06:37:27;;;;;;;2.78;1.92;;;;;;;;;;5064492;28;20031;-76
2022/07/03 06:39:53;;;;;;;2.92;2.00;;;;;;;;;;5061338;28;20016;-76
2022/07/03 06:42:19;;;;;;;2.92;1.98;;;;;;;;;;5056787;28;20048;-76
2022/07/03 06:44:45;;;;;;;2.38;2.13;;;;;;;;;;5060383;28;20055;-76
2022/07/03 06:47:11;;;;;;;2.65;2.22;;;;;;;;;;5058000;28;20080;-76
2022/07/03 06:49:37;;;;;;;4.80;1.88;;;;;;;;;;5056354;28;20031;-75
2022/07/03 06:52:03;;;;;;;2.78;1.95;;;;;;;;;;5059653;28;20127;-77
2022/07/03 06:54:29;;;;;;;5.30;1.95;;;;;;;;;;5057315;28;20383;-75
2022/07/03 06:56:55;;;;;;;2.85;1.70;;;;;;;;;;5054301;28;20102;-77
2022/07/03 06:59:21;;;;;;;3.80;1.83;;;;;;;;;;5057994;28;20043;-77
2022/07/03 07:01:48;;;;;;;3.90;2.10;;;;;;;;;;5064927;28;20028;-77
2022/07/03 07:04:14;;;;;;;4.53;2.47;;;;;;;;;;5060214;28;20029;-76
2022/07/03 07:06:40;;;;;;;2.83;1.98;;;;;;;;;;5062571;28;20028;-76
2022/07/03 07:09:06;;;;;;;5.03;1.80;;;;;;;;;;5055468;28;20032;-76
2022/07/03 07:11:32;;;;;;;3.88;1.90;;;;;;;;;;5053735;28;20036;-76
2022/07/03 07:13:58;;;;;;;1.88;1.77;;;;;;;;;;5058374;28;20047;-76
2022/07/03 07:16:24;;;;;;;3.55;1.80;;;;;;;;;;5050023;28;20070;-76
2022/07/03 07:18:50;;;;;;;2.20;1.80;;;;;;;;;;5060537;28;20032;-76
2022/07/03 07:21:16;;;;;;;2.50;2.00;;;;;;;;;;5059682;28;20033;-77
2022/07/03 07:23:42;;;;;;;2.40;1.58;;;;;;;;;;5060178;28;20032;-77
2022/07/03 07:26:09;;;;;;;2.50;1.83;;;;;;;;;;5061624;28;20370;-76
2022/07/03 07:28:35;;;;;;;4.00;1.70;;;;;;;;;;5062307;28;20458;-78
2022/07/03 07:31:01;;;;;;;3.08;1.58;;;;;;;;;;5054808;28;20029;-76
2022/07/03 07:33:28;;;;;;;2.53;1.80;;;;;;;;;;5065864;28;20043;-75
2022/07/03 07:35:54;;;;;;;3.47;1.65;;;;;;;;;;5067865;28;20033;-77
2022/07/03 07:38:20;;;;;;;3.50;1.60;;;;;;;;;;5056458;28;20023;-76
2022/07/03 07:40:47;;;;;;;3.35;2.38;;;;;;;;;;5054948;28;20075;-76
2022/07/03 07:43:13;;;;;;;3.08;1.88;;;;;;;;;;5060815;28;20035;-75
2022/07/03 07:45:39;;;;;;;2.17;1.88;;;;;;;;;;5055920;28;20035;-76
2022/07/03 07:48:05;;;;;;;1.70;1.52;;;;;;;;;;5057502;28;20040;-76
2022/07/03 07:50:31;;;;;;;1.50;1.40;;;;;;;;;;5058780;28;20028;-76
2022/07/03 07:52:57;;;;;;;4.65;1.80;;;;;;;;;;5059534;28;20570;-78
2022/07/03 07:55:25;;;;;;;1.85;1.40;;;;;;;;;;5059716;28;20120;-78
2022/07/03 07:57:51;;;;;;;2.75;1.70;;;;;;;;;;5061648;28;20029;-77
2022/07/03 08:00:18;;;;;;;2.88;1.98;;;;;;;;;;5057855;28;20021;-76
2022/07/03 08:05:36;;;;;;;;;;;;;;;;;;5061472;28;20075;-77
2022/07/03 08:08:22;;;;;;;3.78;2.00;;;;;;;;;;5059610;28;19916;-77
2022/07/03 08:10:49;;;;;;;1.90;1.50;;;;;;;;;;5062502;28;20032;-77
2022/07/03 08:13:16;;;;;;;2.17;1.77;;;;;;;;;;5057375;28;20027;-77
2022/07/03 08:15:43;;;;;;;2.28;1.63;;;;;;;;;;5062493;28;20473;-77
2022/07/03 08:18:10;;;;;;;2.88;1.83;;;;;;;;;;5062637;28;20028;-76
2022/07/03 08:20:36;;;;;;;1.88;1.70;;;;;;;;;;5069938;28;20032;-77
2022/07/03 08:23:03;;;;;;;2.58;1.42;;;;;;;;;;5064810;28;20036;-77
2022/07/03 08:25:30;;;;;;;2.03;1.92;;;;;;;;;;5069078;28;20036;-75
2022/07/03 08:27:56;;;;;;;2.17;1.50;;;;;;;;;;5063195;28;20486;-77
2022/07/03 08:30:23;;;;;;;1.40;1.30;;;;;;;;;;5062319;28;20041;-77
2022/07/03 08:32:49;;;;;;;1.50;1.40;;;;;;;;;;5061048;28;20044;-77
2022/07/03 08:35:16;;;;;;;2.67;1.58;;;;;;;;;;5063390;28;20123;-78
2022/07/03 08:37:43;;;;;;;1.60;1.50;;;;;;;;;;5069979;28;20048;-76
2022/07/03 08:40:13;;;;;;;2.22;1.92;;;;;;;;;;5069721;28;20067;-75
2022/07/03 08:42:42;;;;;;;2.88;1.60;;;;;;;;;;5063247;28;20029;-75
2022/07/03 08:45:13;;;;;;;1.70;1.30;;;;;;;;;;5085221;28;20651;-77
2022/07/03 08:47:40;;;;;;;3.20;1.90;;;;;;;;;;5068798;28;20083;-76
2022/07/03 08:50:07;;;;;;;3.25;1.77;;;;;;;;;;5074585;28;20556;-78
2022/07/03 08:52:35;;;;;;;1.85;1.58;;;;;;;;;;5070733;28;20044;-76
2022/07/03 08:55:02;;;;;;;2.65;1.70;;;;;;;;;;5068494;28;20024;-77
2022/07/03 08:57:31;;;;;;;2.40;1.63;;;;;;;;;;5057025;28;20407;-76
2022/07/03 08:59:58;;;;;;;3.83;1.60;;;;;;;;;;5066907;28;20119;-77
2022/07/03 09:02:24;;;;;;;5.00;1.45;;;;;;;;;;5071428;28;20459;-78
2022/07/03 09:04:50;;;;;;;2.25;1.50;;;;;;;;;;5066158;28;20048;-76
2022/07/03 09:07:19;;;;;;;2.20;1.52;;;;;;;;;;5060879;28;20033;-77
2022/07/03 09:09:45;;;;;;;1.60;1.50;;;;;;;;;;5059042;28;20467;-77
2022/07/03 09:12:11;;;;;;;6.45;1.75;;;;;;;;;;5063653;28;20489;-77
2022/07/03 09:14:37;;;;;;;1.52;1.40;;;;;;;;;;5066618;28;20543;-76
2022/07/03 09:17:06;;;;;;;1.77;1.65;;;;;;;;;;5065191;28;20028;-77
2022/07/03 09:19:43;;;;;;;2.00;1.40;;;;;;;;;;5059461;28;20391;-74
2022/07/03 09:22:22;;;;;;;2.53;1.60;;;;;;;;;;5061134;28;20050;-76
2022/07/03 09:24:49;;;;;;;3.00;1.90;;;;;;;;;;5061473;28;20029;-77
2022/07/03 09:27:20;;;;;;;2.58;1.45;;;;;;;;;;5058779;28;20037;-76
2022/07/03 09:30:12;;;;;;;2.75;1.33;;;;;;;;;;5059687;28;20855;-76
2022/07/03 09:32:39;;;;;;;1.50;1.30;;;;;;;;;;5057087;28;20051;-77
2022/07/03 09:35:21;;;;;;;3.08;1.67;;;;;;;;;;5058978;28;20028;-77
2022/07/03 09:37:53;;;;;;;1.50;1.40;;;;;;;;;;5057069;28;20029;-75
2022/07/03 09:40:19;;;;;;;2.15;1.60;;;;;;;;;;5056965;28;20032;-76
2022/07/03 09:43:02;;;;;;;2.95;1.63;;;;;;;;;;5061066;28;20521;-75
2022/07/03 09:45:48;;;;;;;4.38;1.70;;;;;;;;;;5051908;28;20033;-76
2022/07/03 09:48:24;;;;;;;2.65;1.70;;;;;;;;;;5071808;28;20144;-73
2022/07/03 09:50:50;;;;;;;1.63;1.50;;;;;;;;;;5054325;28;20025;-74
2022/07/03 09:53:16;;;;;;;3.88;1.55;;;;;;;;;;5058884;28;20036;-75
2022/07/03 09:55:56;;;;;;;1.92;1.52;;;;;;;;;;5056242;28;20067;-75
2022/07/03 09:58:22;;;;;;;1.88;1.48;;;;;;;;;;5057161;28;20896;-76
2022/07/03 10:00:48;;;;;;;2.95;1.50;;;;;;;;;;5060965;28;20036;-74
2022/07/03 10:03:14;;;;;;;3.10;1.70;;;;;;;;;;5059278;28;20421;-76
2022/07/03 10:05:41;;;;;;;2.65;1.80;;;;;;;;;;5061368;28;20522;-74
2022/07/03 10:08:09;;;;;;;2.17;1.60;;;;;;;;;;5057688;28;20043;-75
2022/07/03 10:10:35;;;;;;;3.38;1.63;;;;;;;;;;5059104;28;20032;-75
2022/07/03 10:13:02;;;;;;;3.92;1.75;;;;;;;;;;5059258;28;20020;-75
2022/07/03 10:15:29;;;;;;;2.03;1.40;;;;;;;;;;5058616;28;20086;-73
2022/07/03 10:17:57;;;;;;;2.88;1.65;;;;;;;;;;5062087;28;20442;-74
2022/07/03 10:20:28;;;;;;;2.78;1.80;;;;;;;;;;5060750;28;20102;-72
2022/07/03 10:22:55;;;;;;;2.33;1.55;;;;;;;;;;5061246;28;20028;-74
2022/07/03 10:25:21;;;;;;;5.32;1.73;;;;;;;;;;5060676;28;20458;-73
2022/07/03 10:27:49;;;;;;;3.40;1.42;;;;;;;;;;5066297;28;20093;-75
2022/07/03 10:30:19;;;;;;;2.03;1.50;;;;;;;;;;5064497;28;20105;-74
2022/07/03 10:32:46;;;;;;;3.25;1.80;;;;;;;;;;5062731;28;20090;-74
2022/07/03 10:35:17;;;;;;;1.77;1.40;;;;;;;;;;5060063;28;20036;-73
2022/07/03 10:37:49;;;;;;;2.50;1.40;;;;;;;;;;5062259;28;20063;-74
2022/07/03 10:46:14;;;;;;;2.20;1.63;;;;;;;;;;5059758;28;20043;-74
2022/07/03 10:48:53;;;;;;;3.03;1.73;;;;;;;;;;5056673;28;20032;-75
2022/07/03 10:51:19;;;;;;;2.28;1.83;;;;;;;;;;5059802;28;20089;-74
2022/07/03 10:53:45;;;;;;;2.35;1.65;;;;;;;;;;5060544;28;20470;-75
2022/07/03 10:56:11;;;;;;;1.95;1.58;;;;;;;;;;5058626;28;20193;-75
2022/07/03 10:59:00;;;;;;;1.40;1.30;;;;;;;;;;5058761;28;20104;-76
2022/07/03 11:01:30;;;;;;;1.90;1.80;;;;;;;;;;5050974;28;20093;-75
2022/07/03 11:04:00;;;;;;;2.30;1.50;;;;;;;;;;5062198;28;20455;-74
2022/07/03 11:06:47;;;;;;;1.85;1.50;;;;;;;;;;5058401;28;20037;-74
2022/07/03 11:09:14;;;;;;;2.47;1.95;;;;;;;;;;5060470;28;20028;-74
2022/07/03 11:11:59;;;;;;;2.33;1.48;;;;;;;;;;5061994;28;20032;-74
2022/07/03 11:14:27;;;;;;;1.35;1.25;;;;;;;;;;5061531;28;20028;-74
2022/07/03 11:17:12;;;;;;;1.50;1.40;;;;;;;;;;5058815;28;20580;-74
2022/07/03 11:19:38;;;;;;;3.67;2.20;;;;;;;;;;5060857;28;20017;-74
2022/07/03 11:22:10;;;;;;;4.13;2.05;;;;;;;;;;5059755;28;20534;-74
2022/07/03 11:24:39;;;;;;;4.38;1.70;;;;;;;;;;5061440;28;20508;-73
2022/07/03 11:27:23;;;;;;;1.50;1.27;;;;;;;;;;5059404;28;20426;-75
2022/07/03 11:29:50;;;;;;;5.70;1.60;;;;;;;;;;5058397;28;20039;-74
2022/07/03 11:32:35;;;;;;;1.50;1.40;;;;;;;;;;5059770;28;20512;-75
2022/07/03 11:35:02;;;;;;;2.20;1.90;;;;;;;;;;5057837;28;20056;-74
2022/07/03 11:37:29;;;;;;;2.35;2.08;;;;;;;;;;5061670;28;20296;-74
2022/07/03 11:39:58;;;;;;;2.50;1.33;;;;;;;;;;5060069;28;20572;-74
2022/07/03 11:42:24;;;;;;;2.42;1.42;;;;;;;;;;5058874;28;20032;-76
2022/07/03 11:44:51;;;;;;;1.77;1.40;;;;;;;;;;5057358;28;20062;-73
2022/07/03 11:47:18;;;;;;;7.78;2.45;;;;;;;;;;5057652;28;20425;-73
2022/07/03 11:49:50;;;;;;;3.78;1.90;;;;;;;;;;5058812;28;20032;-73
2022/07/03 11:52:31;;;;;;;3.50;1.50;;;;;;;;;;5059024;28;20050;-73
2022/07/03 11:54:57;;;;;;;1.55;1.45;;;;;;;;;;5059557;28;20028;-74
2022/07/03 11:57:23;;;;;;;3.65;1.65;;;;;;;;;;5060441;28;20021;-74
2022/07/03 11:59:52;;;;;;;3.35;1.60;;;;;;;;;;5059845;28;20032;-74
2022/07/03 12:02:18;;;;;;;2.25;1.63;;;;;;;;;;5058035;28;20020;-75
2022/07/03 12:04:44;;;;;;;1.85;1.55;;;;;;;;;;5061730;28;20441;-75
2022/07/03 12:07:10;;;;;;;3.25;1.75;;;;;;;;;;5055992;28;20057;-75
2022/07/03 12:09:37;;;;;;;2.25;1.60;;;;;;;;;;5059416;28;20107;-75
2022/07/03 12:12:07;;;;;;;3.00;1.63;;;;;;;;;;5058959;28;20717;-74
2022/07/03 12:14:34;;;;;;;2.65;1.50;;;;;;;;;;5060238;28;20514;-74
2022/07/03 12:17:00;;;;;;;1.55;1.45;;;;;;;;;;5057913;28;20089;-76
2022/07/03 12:19:26;;;;;;;2.30;1.73;;;;;;;;;;5059966;28;20036;-75
2022/07/03 12:21:52;;;;;;;1.48;1.23;;;;;;;;;;5057212;28;20029;-75
2022/07/03 12:24:18;;;;;;;3.25;1.50;;;;;;;;;;5061477;28;20419;-74
2022/07/03 12:26:44;;;;;;;2.03;1.70;;;;;;;;;;5058829;28;20126;-74
2022/07/03 12:29:12;;;;;;;2.45;1.40;;;;;;;;;;5060661;28;20172;-75
2022/07/03 12:31:40;;;;;;;2.70;1.38;;;;;;;;;;5059857;28;20089;-75
2022/07/03 12:34:06;;;;;;;1.50;1.40;;;;;;;;;;5058894;28;20502;-75
2022/07/03 12:36:33;;;;;;;2.45;1.33;;;;;;;;;;5059392;28;20025;-75
2022/07/03 12:39:02;;;;;;;2.20;1.20;;;;;;;;;;5059606;28;20383;-75
2022/07/03 12:41:28;;;;;;;1.60;1.50;;;;;;;;;;5057566;28;20024;-73
2022/07/03 12:43:55;;;;;;;1.83;1.58;;;;;;;;;;5060442;28;20025;-75
2022/07/03 12:46:25;;;;;;;2.22;1.48;;;;;;;;;;5056093;28;20037;-75
2022/07/03 12:48:56;;;;;;;1.58;1.33;;;;;;;;;;5060521;28;20341;-75
2022/07/03 12:51:40;;;;;;;1.70;1.40;;;;;;;;;;5058989;28;20028;-73
2022/07/03 12:54:29;;;;;;;2.08;1.48;;;;;;;;;;5058818;28;20494;-73
2022/07/03 13:00:16;;;;;;;2.58;1.80;;;;;;;;;;5059590;28;20036;-73
2022/07/03 13:02:43;;;;;;;1.33;1.23;;;;;;;;;;5056776;28;20036;-74
2022/07/03 13:05:16;;;;;;;1.60;1.50;;;;;;;;;;5063969;28;20032;-75
2022/07/03 13:07:43;;;;;;;4.32;1.63;;;;;;;;;;5064776;28;20032;-74
2022/07/03 13:10:09;;;;;;;1.50;1.40;;;;;;;;;;5061192;28;20054;-75
2022/07/03 13:12:45;;;;;;;3.17;1.55;;;;;;;;;;5060765;28;20078;-75
2022/07/03 13:15:11;;;;;;;1.77;1.40;;;;;;;;;;5062428;28;20016;-75
2022/07/03 13:17:56;;;;;;;1.67;1.50;;;;;;;;;;5065062;28;20032;-77
2022/07/03 13:20:25;;;;;;;1.60;1.30;;;;;;;;;;5062132;28;20029;-75
2022/07/03 13:22:51;;;;;;;1.50;1.40;;;;;;;;;;5060202;28;20028;-74
2022/07/03 13:25:18;;;;;;;4.22;1.70;;;;;;;;;;5063618;28;20059;-75
2022/07/03 13:27:45;;;;;;;2.72;1.60;;;;;;;;;;5061360;28;20039;-75
2022/07/03 13:30:12;;;;;;;1.65;1.50;;;;;;;;;;5061174;28;20758;-76
2022/07/03 13:32:38;;;;;;;1.48;1.38;;;;;;;;;;5058925;28;20052;-75
2022/07/03 13:35:08;;;;;;;1.55;1.40;;;;;;;;;;5060450;28;20525;-75
2022/07/03 13:37:34;;;;;;;2.90;1.77;;;;;;;;;;5059923;28;20043;-76
2022/07/03 13:40:04;;;;;;;3.85;1.50;;;;;;;;;;5062050;28;20078;-76
2022/07/03 13:42:30;;;;;;;1.55;1.45;;;;;;;;;;5061010;28;20024;-76
2022/07/03 13:44:56;;;;;;;4.05;1.17;;;;;;;;;;5061965;28;20135;-76
2022/07/03 13:47:22;;;;;;;1.52;1.42;;;;;;;;;;5061217;28;20383;-76
2022/07/03 13:49:48;;;;;;;2.10;1.40;;;;;;;;;;5061457;28;20473;-77
2022/07/03 13:52:14;;;;;;;2.08;1.88;;;;;;;;;;5075225;28;20119;-74
2022/07/03 13:54:40;;;;;;;1.50;1.40;;;;;;;;;;5061623;28;20036;-77
2022/07/03 13:57:06;;;;;;;1.90;1.40;;;;;;;;;;5063129;28;20562;-75
2022/07/03 13:59:32;;;;;;;1.77;1.50;;;;;;;;;;5061064;28;20029;-78
2022/07/03 14:01:59;;;;;;;2.20;1.58;;;;;;;;;;5060624;28;20044;-75
2022/07/03 14:04:25;;;;;;;1.80;1.70;;;;;;;;;;5061932;28;20103;-75
2022/07/03 14:06:52;;;;;;;2.25;1.60;;;;;;;;;;5062550;28;20043;-76
2022/07/03 14:09:18;;;;;;;1.70;1.50;;;;;;;;;;5062540;28;20502;-77
2022/07/03 14:11:44;;;;;;;3.67;1.70;;;;;;;;;;5062220;28;20024;-76
2022/07/03 14:14:10;;;;;;;3.50;1.38;;;;;;;;;;5060629;28;20440;-75
2022/07/03 14:16:37;;;;;;;1.02;1.00;;;;;;;;;;5063695;28;20028;-76
2022/07/03 14:19:05;;;;;;;2.00;1.50;;;;;;;;;;5058977;28;20108;-76
2022/07/03 14:21:32;;;;;;;2.00;1.58;;;;;;;;;;5061422;28;20032;-76
2022/07/03 14:23:58;;;;;;;2.40;1.65;;;;;;;;;;5060349;28;20052;-75
2022/07/03 14:34:43;;;;;;;2.70;1.40;;;;;;;;;;5062404;28;20105;-75
2022/07/03 14:37:09;;;;;;;1.85;1.67;;;;;;;;;;5062408;28;20024;-76
2022/07/03 14:39:35;;;;;;;1.50;1.40;;;;;;;;;;5062110;28;20502;-76
2022/07/03 14:42:02;;;;;;;1.60;1.50;;;;;;;;;;5060927;28;20634;-76
2022/07/03 14:44:29;;;;;;;2.53;1.70;;;;;;;;;;5061666;28;20029;-76
2022/07/03 14:46:55;;;;;;;1.48;1.38;;;;;;;;;;5060767;28;20040;-76
2022/07/03 14:49:22;;;;;;;2.97;1.50;;;;;;;;;;5060468;28;20032;-76
2022/07/03 14:51:51;;;;;;;1.25;1.23;;;;;;;;;;5061902;28;20440;-76
2022/07/03 14:54:18;;;;;;;1.40;1.30;;;;;;;;;;5061272;28;20371;-75
2022/07/03 14:56:54;;;;;;;3.95;1.52;;;;;;;;;;5057355;28;20108;-77
2022/07/03 14:59:27;;;;;;;1.55;1.20;;;;;;;;;;5058924;28;20418;-77
2022/07/03 15:01:55;;;;;;;2.05;1.50;;;;;;;;;;5057658;28;20020;-76
2022/07/03 15:04:36;;;;;;;1.30;1.20;;;;;;;;;;5058633;28;20037;-75
2022/07/03 15:07:03;;;;;;;1.10;1.10;;;;;;;;;;5059361;28;20036;-76
2022/07/03 15:09:33;;;;;;;1.17;1.08;;;;;;;;;;5061003;28;20028;-75
2022/07/03 15:14:46;;;;;;;1.50;1.40;;;;;;;;;;5061013;28;20458;-76
2022/07/03 15:17:13;;;;;;;1.65;1.20;;;;;;;;;;5060989;28;20426;-75